LYNI/INI METAR and TAF weather

Enter ICAO airport designator
Station Type Date Time Source
LYNI METAR 2021/05/17 22:30 UTC NOAA

LYNI 172230Z VRB02KT 9999 FEW020 SCT040 13/12 Q1009 NOSIG


Station Type Date Time Source
LYNI Decoded METAR 2021/05/17 22:30 UTC NOAA

Nis, Serbia and Montenegro (LYNI) 43-20N 021-54E 202M
May 17, 2021 - 06:30 PM EDT / 2021.05.17 2230 UTC
Wind: Variable at 2 MPH (2 KT):0
Visibility: greater than 7 mile(s):0
Sky conditions: partly cloudy
Temperature: 55 F (13 C)
Dew Point: 53 F (12 C)
Relative Humidity: 93%
Pressure (altimeter): 29.80 in. Hg (1009 hPa)
ob: LYNI 172230Z VRB02KT 9999 FEW020 SCT040 13/12 Q1009 NOSIG
cycle: 22

Station Type Date Time Source
LYNI TAF 2021/05/17 18:21 UTC NOAA

TAF LYNI 171700Z 1718/1818 18008KT 9999 SCT040 TX20/1813Z TN10/1804Z
BECMG 1718/1720 30010KT
TEMPO 1718/1721 32017G30KT 4000 TSRA SCT030CB SCT040

Example: see airport list